sensor_id;sensor_type;location;lat;lon;timestamp;P1;durP1;ratioP1;P2;durP2;ratioP2
20828;SDS011;10575;50.124;8.582;2024-02-26T00:02:15;3.88;;;1.83;;
20828;SDS011;10575;50.124;8.582;2024-02-26T00:04:41;3.20;;;1.85;;
20828;SDS011;10575;50.124;8.582;2024-02-26T00:07:07;2.67;;;1.60;;
20828;SDS011;10575;50.124;8.582;2024-02-26T00:09:32;2.53;;;1.60;;
20828;SDS011;10575;50.124;8.582;2024-02-26T00:12:01;2.78;;;1.70;;
20828;SDS011;10575;50.124;8.582;2024-02-26T00:14:28;2.80;;;1.85;;
20828;SDS011;10575;50.124;8.582;2024-02-26T00:16:54;2.10;;;1.45;;
20828;SDS011;10575;50.124;8.582;2024-02-26T00:19:20;6.07;;;1.52;;
20828;SDS011;10575;50.124;8.582;2024-02-26T00:21:46;2.53;;;1.63;;
20828;SDS011;10575;50.124;8.582;2024-02-26T00:24:11;2.47;;;1.60;;
20828;SDS011;10575;50.124;8.582;2024-02-26T00:26:37;1.77;;;1.55;;
20828;SDS011;10575;50.124;8.582;2024-02-26T00:29:02;2.03;;;1.60;;
20828;SDS011;10575;50.124;8.582;2024-02-26T00:31:28;2.65;;;1.77;;
20828;SDS011;10575;50.124;8.582;2024-02-26T00:33:53;5.22;;;1.90;;
20828;SDS011;10575;50.124;8.582;2024-02-26T00:36:19;3.08;;;1.77;;
20828;SDS011;10575;50.124;8.582;2024-02-26T00:38:45;2.33;;;1.70;;
20828;SDS011;10575;50.124;8.582;2024-02-26T00:41:15;2.30;;;1.50;;
20828;SDS011;10575;50.124;8.582;2024-02-26T00:43:45;2.03;;;1.45;;
20828;SDS011;10575;50.124;8.582;2024-02-26T00:46:11;7.97;;;1.70;;
20828;SDS011;10575;50.124;8.582;2024-02-26T00:48:36;4.82;;;1.60;;
20828;SDS011;10575;50.124;8.582;2024-02-26T00:51:02;2.00;;;1.60;;
20828;SDS011;10575;50.124;8.582;2024-02-26T00:53:32;3.15;;;1.73;;
20828;SDS011;10575;50.124;8.582;2024-02-26T00:55:58;2.60;;;1.63;;
20828;SDS011;10575;50.124;8.582;2024-02-26T00:58:24;3.65;;;1.70;;
20828;SDS011;10575;50.124;8.582;2024-02-26T01:00:50;2.40;;;1.45;;
20828;SDS011;10575;50.124;8.582;2024-02-26T01:03:15;3.13;;;1.70;;
20828;SDS011;10575;50.124;8.582;2024-02-26T01:05:41;2.88;;;1.65;;
20828;SDS011;10575;50.124;8.582;2024-02-26T01:08:07;4.85;;;1.73;;
20828;SDS011;10575;50.124;8.582;2024-02-26T01:10:33;3.67;;;1.58;;
20828;SDS011;10575;50.124;8.582;2024-02-26T01:12:59;2.65;;;1.40;;
20828;SDS011;10575;50.124;8.582;2024-02-26T01:15:24;2.90;;;1.67;;
20828;SDS011;10575;50.124;8.582;2024-02-26T01:17:50;1.92;;;1.60;;
20828;SDS011;10575;50.124;8.582;2024-02-26T01:20:16;3.58;;;1.75;;
20828;SDS011;10575;50.124;8.582;2024-02-26T01:22:42;4.07;;;1.83;;
20828;SDS011;10575;50.124;8.582;2024-02-26T01:25:08;3.67;;;1.98;;
20828;SDS011;10575;50.124;8.582;2024-02-26T01:27:34;3.42;;;2.15;;
20828;SDS011;10575;50.124;8.582;2024-02-26T01:30:01;2.42;;;1.90;;
20828;SDS011;10575;50.124;8.582;2024-02-26T01:32:28;2.45;;;1.70;;
20828;SDS011;10575;50.124;8.582;2024-02-26T01:34:55;3.03;;;2.00;;
20828;SDS011;10575;50.124;8.582;2024-02-26T01:37:20;4.03;;;1.95;;
20828;SDS011;10575;50.124;8.582;2024-02-26T01:39:46;2.70;;;1.80;;
20828;SDS011;10575;50.124;8.582;2024-02-26T01:42:11;3.45;;;1.98;;
20828;SDS011;10575;50.124;8.582;2024-02-26T01:44:37;2.92;;;1.90;;
20828;SDS011;10575;50.124;8.582;2024-02-26T01:47:03;3.42;;;2.20;;
20828;SDS011;10575;50.124;8.582;2024-02-26T01:49:30;2.78;;;2.05;;
20828;SDS011;10575;50.124;8.582;2024-02-26T01:51:56;5.55;;;2.42;;
20828;SDS011;10575;50.124;8.582;2024-02-26T01:54:23;2.00;;;1.70;;
20828;SDS011;10575;50.124;8.582;2024-02-26T01:56:49;3.92;;;1.88;;
20828;SDS011;10575;50.124;8.582;2024-02-26T01:59:16;3.05;;;1.88;;
20828;SDS011;10575;50.124;8.582;2024-02-26T02:01:42;4.50;;;2.22;;
20828;SDS011;10575;50.124;8.582;2024-02-26T02:04:12;4.43;;;1.70;;
20828;SDS011;10575;50.124;8.582;2024-02-26T02:06:39;3.25;;;2.40;;
20828;SDS011;10575;50.124;8.582;2024-02-26T02:09:06;3.88;;;2.10;;
20828;SDS011;10575;50.124;8.582;2024-02-26T02:11:33;2.88;;;1.88;;
20828;SDS011;10575;50.124;8.582;2024-02-26T02:13:59;6.07;;;1.90;;
20828;SDS011;10575;50.124;8.582;2024-02-26T02:16:24;3.60;;;2.60;;
20828;SDS011;10575;50.124;8.582;2024-02-26T02:18:52;3.40;;;2.13;;
20828;SDS011;10575;50.124;8.582;2024-02-26T02:21:17;3.83;;;2.10;;
20828;SDS011;10575;50.124;8.582;2024-02-26T02:23:43;4.10;;;2.15;;
20828;SDS011;10575;50.124;8.582;2024-02-26T02:26:11;3.80;;;2.70;;
20828;SDS011;10575;50.124;8.582;2024-02-26T02:28:38;3.70;;;2.50;;
20828;SDS011;10575;50.124;8.582;2024-02-26T02:31:05;3.22;;;2.25;;
20828;SDS011;10575;50.124;8.582;2024-02-26T02:33:30;3.90;;;2.55;;
20828;SDS011;10575;50.124;8.582;2024-02-26T02:35:56;3.92;;;2.50;;
20828;SDS011;10575;50.124;8.582;2024-02-26T02:38:23;4.20;;;2.65;;
20828;SDS011;10575;50.124;8.582;2024-02-26T02:40:50;4.05;;;2.65;;
20828;SDS011;10575;50.124;8.582;2024-02-26T02:43:19;8.77;;;2.60;;
20828;SDS011;10575;50.124;8.582;2024-02-26T02:45:44;3.17;;;2.30;;
20828;SDS011;10575;50.124;8.582;2024-02-26T02:48:13;4.32;;;2.50;;
20828;SDS011;10575;50.124;8.582;2024-02-26T02:50:38;3.08;;;2.00;;
20828;SDS011;10575;50.124;8.582;2024-02-26T02:53:04;2.95;;;2.60;;
20828;SDS011;10575;50.124;8.582;2024-02-26T02:55:29;3.97;;;2.38;;
20828;SDS011;10575;50.124;8.582;2024-02-26T02:57:55;3.50;;;2.13;;
20828;SDS011;10575;50.124;8.582;2024-02-26T03:00:20;3.17;;;2.15;;
20828;SDS011;10575;50.124;8.582;2024-02-26T03:02:48;4.47;;;2.42;;
20828;SDS011;10575;50.124;8.582;2024-02-26T03:05:16;3.75;;;2.60;;
20828;SDS011;10575;50.124;8.582;2024-02-26T03:07:42;4.03;;;2.47;;
20828;SDS011;10575;50.124;8.582;2024-02-26T03:10:08;4.85;;;2.25;;
20828;SDS011;10575;50.124;8.582;2024-02-26T03:12:33;7.68;;;2.65;;
20828;SDS011;10575;50.124;8.582;2024-02-26T03:14:59;5.97;;;2.80;;
20828;SDS011;10575;50.124;8.582;2024-02-26T03:17:27;4.30;;;2.67;;
20828;SDS011;10575;50.124;8.582;2024-02-26T03:19:53;3.63;;;2.35;;
20828;SDS011;10575;50.124;8.582;2024-02-26T03:22:19;4.30;;;2.70;;
20828;SDS011;10575;50.124;8.582;2024-02-26T03:24:45;3.60;;;2.33;;
20828;SDS011;10575;50.124;8.582;2024-02-26T03:27:11;4.07;;;2.70;;
20828;SDS011;10575;50.124;8.582;2024-02-26T03:29:37;3.58;;;2.10;;
20828;SDS011;10575;50.124;8.582;2024-02-26T03:32:03;4.22;;;2.53;;
20828;SDS011;10575;50.124;8.582;2024-02-26T03:34:29;5.72;;;2.78;;
20828;SDS011;10575;50.124;8.582;2024-02-26T03:36:56;3.72;;;2.50;;
20828;SDS011;10575;50.124;8.582;2024-02-26T03:39:21;4.03;;;2.45;;
20828;SDS011;10575;50.124;8.582;2024-02-26T03:41:47;4.63;;;2.60;;
20828;SDS011;10575;50.124;8.582;2024-02-26T03:44:13;4.03;;;2.35;;
20828;SDS011;10575;50.124;8.582;2024-02-26T03:46:38;4.13;;;2.65;;
20828;SDS011;10575;50.124;8.582;2024-02-26T03:49:04;4.97;;;2.78;;
20828;SDS011;10575;50.124;8.582;2024-02-26T03:51:29;4.93;;;2.83;;
20828;SDS011;10575;50.124;8.582;2024-02-26T03:53:57;5.70;;;2.55;;
20828;SDS011;10575;50.124;8.582;2024-02-26T03:56:23;3.97;;;2.67;;
20828;SDS011;10575;50.124;8.582;2024-02-26T03:58:49;4.40;;;2.58;;
20828;SDS011;10575;50.124;8.582;2024-02-26T04:01:14;5.00;;;2.83;;
20828;SDS011;10575;50.124;8.582;2024-02-26T04:03:40;3.90;;;2.45;;
20828;SDS011;10575;50.124;8.582;2024-02-26T04:06:08;3.88;;;2.75;;
20828;SDS011;10575;50.124;8.582;2024-02-26T04:08:35;6.03;;;2.92;;
20828;SDS011;10575;50.124;8.582;2024-02-26T04:11:04;4.35;;;3.08;;
20828;SDS011;10575;50.124;8.582;2024-02-26T04:13:32;4.50;;;3.10;;
20828;SDS011;10575;50.124;8.582;2024-02-26T04:15:58;5.63;;;3.10;;
20828;SDS011;10575;50.124;8.582;2024-02-26T04:18:26;3.65;;;2.63;;
20828;SDS011;10575;50.124;8.582;2024-02-26T04:20:52;5.80;;;2.90;;
20828;SDS011;10575;50.124;8.582;2024-02-26T04:23:17;6.78;;;2.95;;
20828;SDS011;10575;50.124;8.582;2024-02-26T04:25:43;4.28;;;3.20;;
20828;SDS011;10575;50.124;8.582;2024-02-26T04:28:08;5.25;;;3.20;;
20828;SDS011;10575;50.124;8.582;2024-02-26T04:30:34;7.03;;;3.17;;
20828;SDS011;10575;50.124;8.582;2024-02-26T04:32:59;5.00;;;3.00;;
20828;SDS011;10575;50.124;8.582;2024-02-26T04:35:25;5.95;;;3.00;;
20828;SDS011;10575;50.124;8.582;2024-02-26T04:37:50;4.80;;;3.05;;
20828;SDS011;10575;50.124;8.582;2024-02-26T04:40:16;5.82;;;3.38;;
20828;SDS011;10575;50.124;8.582;2024-02-26T04:42:41;5.13;;;2.95;;
20828;SDS011;10575;50.124;8.582;2024-02-26T04:45:07;6.07;;;3.03;;
20828;SDS011;10575;50.124;8.582;2024-02-26T04:47:33;5.82;;;3.33;;
20828;SDS011;10575;50.124;8.582;2024-02-26T04:49:59;6.03;;;3.53;;
20828;SDS011;10575;50.124;8.582;2024-02-26T04:52:25;5.72;;;3.20;;
20828;SDS011;10575;50.124;8.582;2024-02-26T04:54:50;6.15;;;3.42;;
20828;SDS011;10575;50.124;8.582;2024-02-26T04:57:16;5.00;;;3.47;;
20828;SDS011;10575;50.124;8.582;2024-02-26T04:59:43;5.70;;;3.63;;
20828;SDS011;10575;50.124;8.582;2024-02-26T05:02:10;4.55;;;3.13;;
20828;SDS011;10575;50.124;8.582;2024-02-26T05:04:35;5.82;;;3.42;;
20828;SDS011;10575;50.124;8.582;2024-02-26T05:07:01;5.47;;;2.97;;
20828;SDS011;10575;50.124;8.582;2024-02-26T05:09:26;5.68;;;3.60;;
20828;SDS011;10575;50.124;8.582;2024-02-26T05:11:52;6.63;;;3.40;;
20828;SDS011;10575;50.124;8.582;2024-02-26T05:14:17;6.72;;;4.03;;
20828;SDS011;10575;50.124;8.582;2024-02-26T05:16:43;6.32;;;3.47;;
20828;SDS011;10575;50.124;8.582;2024-02-26T05:19:08;8.55;;;3.72;;
20828;SDS011;10575;50.124;8.582;2024-02-26T05:21:34;7.50;;;4.13;;
20828;SDS011;10575;50.124;8.582;2024-02-26T05:23:59;7.65;;;3.60;;
20828;SDS011;10575;50.124;8.582;2024-02-26T05:26:25;7.85;;;4.13;;
20828;SDS011;10575;50.124;8.582;2024-02-26T05:28:51;6.95;;;3.53;;
20828;SDS011;10575;50.124;8.582;2024-02-26T05:31:17;9.90;;;4.38;;
20828;SDS011;10575;50.124;8.582;2024-02-26T05:33:43;8.45;;;4.18;;
20828;SDS011;10575;50.124;8.582;2024-02-26T05:36:09;7.20;;;3.92;;
20828;SDS011;10575;50.124;8.582;2024-02-26T05:38:35;8.38;;;3.85;;
20828;SDS011;10575;50.124;8.582;2024-02-26T05:41:01;6.82;;;4.20;;
20828;SDS011;10575;50.124;8.582;2024-02-26T05:43:27;6.72;;;3.58;;
20828;SDS011;10575;50.124;8.582;2024-02-26T05:45:54;7.30;;;3.75;;
20828;SDS011;10575;50.124;8.582;2024-02-26T05:48:19;5.68;;;3.80;;
20828;SDS011;10575;50.124;8.582;2024-02-26T05:50:45;6.65;;;3.95;;
20828;SDS011;10575;50.124;8.582;2024-02-26T05:53:11;9.27;;;4.22;;
20828;SDS011;10575;50.124;8.582;2024-02-26T05:55:37;5.63;;;4.50;;
20828;SDS011;10575;50.124;8.582;2024-02-26T05:58:03;6.88;;;4.40;;
20828;SDS011;10575;50.124;8.582;2024-02-26T06:00:31;7.43;;;4.57;;
20828;SDS011;10575;50.124;8.582;2024-02-26T06:02:57;8.25;;;4.40;;
20828;SDS011;10575;50.124;8.582;2024-02-26T06:05:22;9.38;;;4.55;;
20828;SDS011;10575;50.124;8.582;2024-02-26T06:07:48;8.88;;;4.60;;
20828;SDS011;10575;50.124;8.582;2024-02-26T06:10:19;11.80;;;5.25;;
20828;SDS011;10575;50.124;8.582;2024-02-26T06:12:46;9.75;;;5.07;;
20828;SDS011;10575;50.124;8.582;2024-02-26T06:15:12;11.32;;;4.90;;
20828;SDS011;10575;50.124;8.582;2024-02-26T06:17:37;9.65;;;4.97;;
20828;SDS011;10575;50.124;8.582;2024-02-26T06:20:03;9.70;;;4.97;;
20828;SDS011;10575;50.124;8.582;2024-02-26T06:22:31;11.80;;;5.43;;
20828;SDS011;10575;50.124;8.582;2024-02-26T06:24:57;13.40;;;5.72;;
20828;SDS011;10575;50.124;8.582;2024-02-26T06:27:23;9.57;;;4.68;;
20828;SDS011;10575;50.124;8.582;2024-02-26T06:29:48;11.85;;;4.78;;
20828;SDS011;10575;50.124;8.582;2024-02-26T06:32:14;10.27;;;5.20;;
20828;SDS011;10575;50.124;8.582;2024-02-26T06:34:40;13.88;;;5.15;;
20828;SDS011;10575;50.124;8.582;2024-02-26T06:37:07;11.90;;;6.13;;
20828;SDS011;10575;50.124;8.582;2024-02-26T06:39:33;9.45;;;5.07;;
20828;SDS011;10575;50.124;8.582;2024-02-26T06:41:58;9.00;;;5.35;;
20828;SDS011;10575;50.124;8.582;2024-02-26T06:44:27;8.25;;;4.82;;
20828;SDS011;10575;50.124;8.582;2024-02-26T06:46:57;10.73;;;5.35;;
20828;SDS011;10575;50.124;8.582;2024-02-26T06:49:26;10.25;;;5.03;;
20828;SDS011;10575;50.124;8.582;2024-02-26T06:51:52;11.68;;;5.10;;
20828;SDS011;10575;50.124;8.582;2024-02-26T06:54:18;9.90;;;5.20;;
20828;SDS011;10575;50.124;8.582;2024-02-26T06:56:43;9.80;;;5.03;;
20828;SDS011;10575;50.124;8.582;2024-02-26T06:59:09;11.00;;;5.30;;
20828;SDS011;10575;50.124;8.582;2024-02-26T07:01:34;12.77;;;5.78;;
20828;SDS011;10575;50.124;8.582;2024-02-26T07:04:00;10.35;;;5.18;;
20828;SDS011;10575;50.124;8.582;2024-02-26T07:06:26;11.48;;;5.63;;
20828;SDS011;10575;50.124;8.582;2024-02-26T07:08:52;12.02;;;5.78;;
20828;SDS011;10575;50.124;8.582;2024-02-26T07:11:22;9.70;;;5.38;;
20828;SDS011;10575;50.124;8.582;2024-02-26T07:13:47;12.98;;;6.30;;
20828;SDS011;10575;50.124;8.582;2024-02-26T07:16:14;11.20;;;5.75;;
20828;SDS011;10575;50.124;8.582;2024-02-26T07:18:40;13.18;;;6.13;;
20828;SDS011;10575;50.124;8.582;2024-02-26T07:21:05;13.02;;;5.80;;
20828;SDS011;10575;50.124;8.582;2024-02-26T07:23:31;10.10;;;5.50;;
20828;SDS011;10575;50.124;8.582;2024-02-26T07:25:57;12.38;;;5.95;;
20828;SDS011;10575;50.124;8.582;2024-02-26T07:28:23;10.02;;;5.95;;
20828;SDS011;10575;50.124;8.582;2024-02-26T07:30:49;10.48;;;5.00;;
20828;SDS011;10575;50.124;8.582;2024-02-26T07:33:15;13.50;;;5.82;;
20828;SDS011;10575;50.124;8.582;2024-02-26T07:35:40;11.18;;;5.35;;
20828;SDS011;10575;50.124;8.582;2024-02-26T07:38:06;11.95;;;6.15;;
20828;SDS011;10575;50.124;8.582;2024-02-26T07:40:32;10.48;;;5.57;;
20828;SDS011;10575;50.124;8.582;2024-02-26T07:42:57;11.90;;;5.30;;
20828;SDS011;10575;50.124;8.582;2024-02-26T07:45:25;8.48;;;5.55;;
20828;SDS011;10575;50.124;8.582;2024-02-26T07:47:51;10.10;;;5.60;;
20828;SDS011;10575;50.124;8.582;2024-02-26T07:50:16;10.90;;;5.80;;
20828;SDS011;10575;50.124;8.582;2024-02-26T07:52:42;11.02;;;5.43;;
20828;SDS011;10575;50.124;8.582;2024-02-26T07:55:09;10.63;;;5.70;;
20828;SDS011;10575;50.124;8.582;2024-02-26T07:57:35;10.68;;;5.20;;
20828;SDS011;10575;50.124;8.582;2024-02-26T08:00:01;11.60;;;5.75;;
20828;SDS011;10575;50.124;8.582;2024-02-26T08:02:27;11.20;;;5.18;;
20828;SDS011;10575;50.124;8.582;2024-02-26T08:04:53;10.15;;;5.18;;
20828;SDS011;10575;50.124;8.582;2024-02-26T08:07:18;11.95;;;6.25;;
20828;SDS011;10575;50.124;8.582;2024-02-26T08:09:45;11.30;;;6.35;;
20828;SDS011;10575;50.124;8.582;2024-02-26T08:12:11;12.75;;;5.28;;
20828;SDS011;10575;50.124;8.582;2024-02-26T08:14:36;12.23;;;5.38;;
20828;SDS011;10575;50.124;8.582;2024-02-26T08:17:02;11.38;;;5.32;;
20828;SDS011;10575;50.124;8.582;2024-02-26T08:19:28;10.45;;;5.72;;
20828;SDS011;10575;50.124;8.582;2024-02-26T08:21:53;10.73;;;5.32;;
20828;SDS011;10575;50.124;8.582;2024-02-26T08:24:19;8.63;;;4.82;;
20828;SDS011;10575;50.124;8.582;2024-02-26T08:26:45;9.30;;;5.35;;
20828;SDS011;10575;50.124;8.582;2024-02-26T08:29:10;9.43;;;4.78;;
20828;SDS011;10575;50.124;8.582;2024-02-26T08:31:36;11.35;;;5.35;;
20828;SDS011;10575;50.124;8.582;2024-02-26T08:34:02;11.38;;;5.63;;
20828;SDS011;10575;50.124;8.582;2024-02-26T08:36:28;16.45;;;6.15;;
20828;SDS011;10575;50.124;8.582;2024-02-26T08:38:55;10.95;;;5.68;;
20828;SDS011;10575;50.124;8.582;2024-02-26T08:41:20;11.18;;;5.78;;
20828;SDS011;10575;50.124;8.582;2024-02-26T08:43:46;10.75;;;6.03;;
20828;SDS011;10575;50.124;8.582;2024-02-26T08:46:12;10.60;;;5.88;;
20828;SDS011;10575;50.124;8.582;2024-02-26T08:48:38;9.50;;;4.93;;
20828;SDS011;10575;50.124;8.582;2024-02-26T08:51:08;11.63;;;5.70;;
20828;SDS011;10575;50.124;8.582;2024-02-26T08:53:34;11.32;;;6.45;;
20828;SDS011;10575;50.124;8.582;2024-02-26T08:56:00;10.90;;;5.97;;
20828;SDS011;10575;50.124;8.582;2024-02-26T08:58:27;13.20;;;6.35;;
20828;SDS011;10575;50.124;8.582;2024-02-26T09:00:53;11.90;;;5.68;;
20828;SDS011;10575;50.124;8.582;2024-02-26T09:03:18;15.30;;;6.53;;
20828;SDS011;10575;50.124;8.582;2024-02-26T09:05:44;13.70;;;6.05;;
20828;SDS011;10575;50.124;8.582;2024-02-26T09:08:09;11.82;;;6.35;;
20828;SDS011;10575;50.124;8.582;2024-02-26T09:10:35;13.35;;;6.57;;
20828;SDS011;10575;50.124;8.582;2024-02-26T09:13:01;14.73;;;6.30;;
20828;SDS011;10575;50.124;8.582;2024-02-26T09:15:27;14.35;;;7.20;;
20828;SDS011;10575;50.124;8.582;2024-02-26T09:17:53;13.95;;;6.57;;
20828;SDS011;10575;50.124;8.582;2024-02-26T09:20:18;13.57;;;5.88;;
20828;SDS011;10575;50.124;8.582;2024-02-26T09:22:45;14.23;;;6.07;;
20828;SDS011;10575;50.124;8.582;2024-02-26T09:25:11;11.60;;;6.32;;
20828;SDS011;10575;50.124;8.582;2024-02-26T09:27:37;11.82;;;6.90;;
20828;SDS011;10575;50.124;8.582;2024-02-26T09:30:03;9.00;;;5.90;;
20828;SDS011;10575;50.124;8.582;2024-02-26T09:32:29;10.18;;;6.15;;
20828;SDS011;10575;50.124;8.582;2024-02-26T09:34:55;13.80;;;6.57;;
20828;SDS011;10575;50.124;8.582;2024-02-26T09:37:20;13.75;;;6.97;;
20828;SDS011;10575;50.124;8.582;2024-02-26T09:39:46;15.35;;;6.47;;
20828;SDS011;10575;50.124;8.582;2024-02-26T09:42:12;12.23;;;6.15;;
20828;SDS011;10575;50.124;8.582;2024-02-26T09:44:39;10.70;;;5.93;;
20828;SDS011;10575;50.124;8.582;2024-02-26T09:47:07;14.43;;;6.80;;
20828;SDS011;10575;50.124;8.582;2024-02-26T09:49:35;13.77;;;6.45;;
20828;SDS011;10575;50.124;8.582;2024-02-26T09:52:04;11.65;;;6.53;;
20828;SDS011;10575;50.124;8.582;2024-02-26T09:54:29;12.95;;;7.07;;
20828;SDS011;10575;50.124;8.582;2024-02-26T09:57:00;10.82;;;6.38;;
20828;SDS011;10575;50.124;8.582;2024-02-26T09:59:27;12.02;;;6.53;;
20828;SDS011;10575;50.124;8.582;2024-02-26T10:01:54;11.13;;;6.13;;
20828;SDS011;10575;50.124;8.582;2024-02-26T10:04:22;10.18;;;6.18;;
20828;SDS011;10575;50.124;8.582;2024-02-26T10:06:49;12.13;;;6.45;;
20828;SDS011;10575;50.124;8.582;2024-02-26T10:09:16;11.00;;;6.50;;
20828;SDS011;10575;50.124;8.582;2024-02-26T10:11:42;11.70;;;6.40;;
20828;SDS011;10575;50.124;8.582;2024-02-26T10:14:08;11.35;;;6.65;;
20828;SDS011;10575;50.124;8.582;2024-02-26T10:16:34;13.55;;;6.93;;
20828;SDS011;10575;50.124;8.582;2024-02-26T10:19:00;12.35;;;6.25;;
20828;SDS011;10575;50.124;8.582;2024-02-26T10:21:26;12.65;;;5.82;;
20828;SDS011;10575;50.124;8.582;2024-02-26T10:23:51;12.45;;;6.88;;
20828;SDS011;10575;50.124;8.582;2024-02-26T10:26:17;14.00;;;7.00;;
20828;SDS011;10575;50.124;8.582;2024-02-26T10:28:44;11.18;;;6.22;;
20828;SDS011;10575;50.124;8.582;2024-02-26T10:31:10;12.38;;;6.63;;
20828;SDS011;10575;50.124;8.582;2024-02-26T10:33:37;9.18;;;6.13;;
20828;SDS011;10575;50.124;8.582;2024-02-26T10:36:07;13.05;;;6.50;;
20828;SDS011;10575;50.124;8.582;2024-02-26T10:38:33;12.38;;;6.38;;
20828;SDS011;10575;50.124;8.582;2024-02-26T10:41:01;9.52;;;5.90;;
20828;SDS011;10575;50.124;8.582;2024-02-26T10:43:28;11.10;;;5.88;;
20828;SDS011;10575;50.124;8.582;2024-02-26T10:45:57;9.73;;;6.53;;
20828;SDS011;10575;50.124;8.582;2024-02-26T10:48:23;16.48;;;7.18;;
20828;SDS011;10575;50.124;8.582;2024-02-26T10:50:49;14.07;;;6.30;;
20828;SDS011;10575;50.124;8.582;2024-02-26T10:53:16;9.82;;;6.10;;
20828;SDS011;10575;50.124;8.582;2024-02-26T10:55:45;9.52;;;5.72;;
20828;SDS011;10575;50.124;8.582;2024-02-26T10:58:25;11.68;;;6.00;;
20828;SDS011;10575;50.124;8.582;2024-02-26T11:00:56;16.88;;;7.63;;
20828;SDS011;10575;50.124;8.582;2024-02-26T11:03:22;13.00;;;6.30;;
20828;SDS011;10575;50.124;8.582;2024-02-26T11:05:49;13.20;;;6.30;;
20828;SDS011;10575;50.124;8.582;2024-02-26T11:08:18;11.80;;;5.75;;
20828;SDS011;10575;50.124;8.582;2024-02-26T11:10:47;9.82;;;5.90;;
20828;SDS011;10575;50.124;8.582;2024-02-26T11:13:14;8.00;;;5.28;;
20828;SDS011;10575;50.124;8.582;2024-02-26T11:15:42;9.68;;;5.85;;
20828;SDS011;10575;50.124;8.582;2024-02-26T11:18:09;11.30;;;6.18;;
20828;SDS011;10575;50.124;8.582;2024-02-26T11:20:37;10.15;;;6.20;;
20828;SDS011;10575;50.124;8.582;2024-02-26T11:23:05;9.23;;;5.28;;
20828;SDS011;10575;50.124;8.582;2024-02-26T11:25:31;11.20;;;6.35;;
20828;SDS011;10575;50.124;8.582;2024-02-26T11:27:58;9.23;;;5.53;;
20828;SDS011;10575;50.124;8.582;2024-02-26T11:30:27;10.73;;;6.13;;
20828;SDS011;10575;50.124;8.582;2024-02-26T11:32:56;10.90;;;5.75;;
20828;SDS011;10575;50.124;8.582;2024-02-26T11:35:22;7.75;;;4.85;;
20828;SDS011;10575;50.124;8.582;2024-02-26T11:37:55;10.40;;;5.60;;
20828;SDS011;10575;50.124;8.582;2024-02-26T11:40:24;11.45;;;6.65;;
20828;SDS011;10575;50.124;8.582;2024-02-26T11:42:51;8.95;;;5.30;;
20828;SDS011;10575;50.124;8.582;2024-02-26T11:48:15;10.55;;;6.60;;
20828;SDS011;10575;50.124;8.582;2024-02-26T11:50:47;9.63;;;5.55;;
20828;SDS011;10575;50.124;8.582;2024-02-26T11:58:44;8.73;;;5.22;;
20828;SDS011;10575;50.124;8.582;2024-02-26T12:04:17;9.35;;;5.47;;
20828;SDS011;10575;50.124;8.582;2024-02-26T12:09:37;8.27;;;5.18;;
20828;SDS011;10575;50.124;8.582;2024-02-26T12:12:04;9.85;;;5.45;;
20828;SDS011;10575;50.124;8.582;2024-02-26T12:15:14;8.05;;;5.20;;
20828;SDS011;10575;50.124;8.582;2024-02-26T12:17:23;11.57;;;5.03;;
20828;SDS011;10575;50.124;8.582;2024-02-26T12:19:50;9.23;;;5.45;;
20828;SDS011;10575;50.124;8.582;2024-02-26T12:22:17;9.43;;;5.68;;
20828;SDS011;10575;50.124;8.582;2024-02-26T12:24:43;14.35;;;6.22;;
20828;SDS011;10575;50.124;8.582;2024-02-26T12:27:09;10.27;;;5.68;;
20828;SDS011;10575;50.124;8.582;2024-02-26T12:29:35;10.52;;;5.75;;
20828;SDS011;10575;50.124;8.582;2024-02-26T12:32:00;7.35;;;5.38;;
20828;SDS011;10575;50.124;8.582;2024-02-26T12:34:28;9.23;;;6.03;;
20828;SDS011;10575;50.124;8.582;2024-02-26T12:36:54;8.48;;;5.55;;
20828;SDS011;10575;50.124;8.582;2024-02-26T12:39:19;10.23;;;6.10;;
20828;SDS011;10575;50.124;8.582;2024-02-26T12:41:45;14.30;;;7.38;;
20828;SDS011;10575;50.124;8.582;2024-02-26T12:44:15;9.63;;;5.50;;
20828;SDS011;10575;50.124;8.582;2024-02-26T12:46:49;8.57;;;5.40;;
20828;SDS011;10575;50.124;8.582;2024-02-26T12:49:15;8.85;;;5.80;;
20828;SDS011;10575;50.124;8.582;2024-02-26T12:51:44;9.77;;;5.88;;
20828;SDS011;10575;50.124;8.582;2024-02-26T12:54:10;13.35;;;7.32;;
20828;SDS011;10575;50.124;8.582;2024-02-26T12:56:37;10.77;;;6.75;;
20828;SDS011;10575;50.124;8.582;2024-02-26T12:59:03;13.30;;;6.05;;
20828;SDS011;10575;50.124;8.582;2024-02-26T13:01:29;8.82;;;5.25;;
20828;SDS011;10575;50.124;8.582;2024-02-26T13:03:55;8.82;;;5.25;;
20828;SDS011;10575;50.124;8.582;2024-02-26T13:06:21;7.47;;;5.10;;
20828;SDS011;10575;50.124;8.582;2024-02-26T13:08:47;8.68;;;4.70;;
20828;SDS011;10575;50.124;8.582;2024-02-26T13:11:14;9.40;;;5.43;;
20828;SDS011;10575;50.124;8.582;2024-02-26T13:13:40;7.70;;;5.25;;
20828;SDS011;10575;50.124;8.582;2024-02-26T13:16:05;8.55;;;5.43;;
20828;SDS011;10575;50.124;8.582;2024-02-26T13:18:33;9.07;;;5.57;;
20828;SDS011;10575;50.124;8.582;2024-02-26T13:21:07;14.48;;;6.32;;
20828;SDS011;10575;50.124;8.582;2024-02-26T13:23:37;7.63;;;5.22;;
20828;SDS011;10575;50.124;8.582;2024-02-26T13:26:03;7.75;;;5.07;;
20828;SDS011;10575;50.124;8.582;2024-02-26T13:28:29;7.10;;;4.40;;
20828;SDS011;10575;50.124;8.582;2024-02-26T13:30:55;9.07;;;5.10;;
20828;SDS011;10575;50.124;8.582;2024-02-26T13:33:22;8.80;;;5.13;;
20828;SDS011;10575;50.124;8.582;2024-02-26T13:35:48;11.13;;;5.03;;
20828;SDS011;10575;50.124;8.582;2024-02-26T13:38:14;7.75;;;5.18;;
20828;SDS011;10575;50.124;8.582;2024-02-26T13:40:40;9.85;;;5.45;;
20828;SDS011;10575;50.124;8.582;2024-02-26T13:43:06;8.00;;;4.70;;
20828;SDS011;10575;50.124;8.582;2024-02-26T13:45:35;8.88;;;5.45;;
20828;SDS011;10575;50.124;8.582;2024-02-26T13:48:03;11.25;;;5.10;;
20828;SDS011;10575;50.124;8.582;2024-02-26T13:50:30;11.15;;;5.38;;
20828;SDS011;10575;50.124;8.582;2024-02-26T13:52:55;9.50;;;4.88;;
20828;SDS011;10575;50.124;8.582;2024-02-26T13:55:22;8.05;;;5.13;;
20828;SDS011;10575;50.124;8.582;2024-02-26T13:57:51;9.38;;;5.32;;
20828;SDS011;10575;50.124;8.582;2024-02-26T14:00:18;9.85;;;5.38;;
20828;SDS011;10575;50.124;8.582;2024-02-26T14:02:44;8.73;;;5.30;;
20828;SDS011;10575;50.124;8.582;2024-02-26T14:05:10;10.32;;;5.25;;
20828;SDS011;10575;50.124;8.582;2024-02-26T14:07:36;7.75;;;4.88;;
20828;SDS011;10575;50.124;8.582;2024-02-26T14:10:01;8.30;;;5.43;;
20828;SDS011;10575;50.124;8.582;2024-02-26T14:12:27;7.97;;;4.75;;
20828;SDS011;10575;50.124;8.582;2024-02-26T14:14:53;7.25;;;4.50;;
20828;SDS011;10575;50.124;8.582;2024-02-26T14:17:20;8.23;;;4.88;;
20828;SDS011;10575;50.124;8.582;2024-02-26T14:19:46;11.75;;;5.13;;
20828;SDS011;10575;50.124;8.582;2024-02-26T14:22:13;9.10;;;5.28;;
20828;SDS011;10575;50.124;8.582;2024-02-26T14:24:40;10.77;;;5.03;;
20828;SDS011;10575;50.124;8.582;2024-02-26T14:27:07;7.47;;;5.28;;
20828;SDS011;10575;50.124;8.582;2024-02-26T14:29:33;8.30;;;4.82;;
20828;SDS011;10575;50.124;8.582;2024-02-26T14:31:59;9.15;;;5.28;;
20828;SDS011;10575;50.124;8.582;2024-02-26T14:34:26;7.30;;;4.43;;
20828;SDS011;10575;50.124;8.582;2024-02-26T14:36:52;6.75;;;4.78;;
20828;SDS011;10575;50.124;8.582;2024-02-26T14:39:17;7.00;;;4.70;;
20828;SDS011;10575;50.124;8.582;2024-02-26T14:41:43;7.47;;;4.70;;
20828;SDS011;10575;50.124;8.582;2024-02-26T14:44:08;10.70;;;5.07;;
20828;SDS011;10575;50.124;8.582;2024-02-26T14:46:34;9.57;;;4.72;;
20828;SDS011;10575;50.124;8.582;2024-02-26T14:49:01;11.77;;;4.25;;
20828;SDS011;10575;50.124;8.582;2024-02-26T14:51:28;7.38;;;5.00;;
20828;SDS011;10575;50.124;8.582;2024-02-26T14:53:54;8.55;;;4.50;;